sensor_id;sensor_type;location;lat;lon;timestamp;P1;durP1;ratioP1;P2;durP2;ratioP2
22176;SDS011;11254;50.098;8.726;2022-07-17T00:00:50;3.50;;;1.40;;
22176;SDS011;11254;50.098;8.726;2022-07-17T00:03:18;3.60;;;1.42;;
22176;SDS011;11254;50.098;8.726;2022-07-17T00:05:47;3.13;;;1.30;;
22176;SDS011;11254;50.098;8.726;2022-07-17T00:08:16;4.05;;;1.35;;
22176;SDS011;11254;50.098;8.726;2022-07-17T00:10:44;4.95;;;1.70;;
22176;SDS011;11254;50.098;8.726;2022-07-17T00:13:12;5.70;;;1.52;;
22176;SDS011;11254;50.098;8.726;2022-07-17T00:15:40;8.07;;;1.38;;
22176;SDS011;11254;50.098;8.726;2022-07-17T00:18:10;4.00;;;1.50;;
22176;SDS011;11254;50.098;8.726;2022-07-17T00:20:38;4.05;;;1.60;;
22176;SDS011;11254;50.098;8.726;2022-07-17T00:23:06;4.00;;;1.30;;
22176;SDS011;11254;50.098;8.726;2022-07-17T00:25:34;3.40;;;1.30;;
22176;SDS011;11254;50.098;8.726;2022-07-17T00:28:02;5.53;;;1.25;;
22176;SDS011;11254;50.098;8.726;2022-07-17T00:30:31;5.13;;;1.42;;
22176;SDS011;11254;50.098;8.726;2022-07-17T00:33:01;6.25;;;1.27;;
22176;SDS011;11254;50.098;8.726;2022-07-17T00:35:30;2.72;;;1.20;;
22176;SDS011;11254;50.098;8.726;2022-07-17T00:37:58;2.83;;;1.20;;
22176;SDS011;11254;50.098;8.726;2022-07-17T00:40:27;3.50;;;1.30;;
22176;SDS011;11254;50.098;8.726;2022-07-17T00:42:55;5.55;;;1.73;;
22176;SDS011;11254;50.098;8.726;2022-07-17T00:45:24;6.07;;;1.60;;
22176;SDS011;11254;50.098;8.726;2022-07-17T00:47:53;5.10;;;1.50;;
22176;SDS011;11254;50.098;8.726;2022-07-17T00:50:22;5.43;;;1.42;;
22176;SDS011;11254;50.098;8.726;2022-07-17T00:52:53;5.65;;;1.40;;
22176;SDS011;11254;50.098;8.726;2022-07-17T00:55:21;3.22;;;1.10;;
22176;SDS011;11254;50.098;8.726;2022-07-17T00:58:10;4.32;;;1.08;;
22176;SDS011;11254;50.098;8.726;2022-07-17T01:00:39;3.67;;;1.20;;
22176;SDS011;11254;50.098;8.726;2022-07-17T01:03:08;6.25;;;1.40;;
22176;SDS011;11254;50.098;8.726;2022-07-17T01:05:37;3.83;;;1.38;;
22176;SDS011;11254;50.098;8.726;2022-07-17T01:08:07;6.40;;;1.08;;
22176;SDS011;11254;50.098;8.726;2022-07-17T01:10:35;4.70;;;1.10;;
22176;SDS011;11254;50.098;8.726;2022-07-17T01:13:04;6.95;;;1.48;;
22176;SDS011;11254;50.098;8.726;2022-07-17T01:15:35;3.83;;;1.20;;
22176;SDS011;11254;50.098;8.726;2022-07-17T01:18:04;4.03;;;1.20;;
22176;SDS011;11254;50.098;8.726;2022-07-17T01:20:34;2.92;;;1.17;;
22176;SDS011;11254;50.098;8.726;2022-07-17T01:23:04;4.20;;;1.30;;
22176;SDS011;11254;50.098;8.726;2022-07-17T01:25:33;3.75;;;1.02;;
22176;SDS011;11254;50.098;8.726;2022-07-17T01:28:03;4.15;;;1.30;;
22176;SDS011;11254;50.098;8.726;2022-07-17T01:30:33;4.65;;;1.10;;
22176;SDS011;11254;50.098;8.726;2022-07-17T01:33:02;4.95;;;1.20;;
22176;SDS011;11254;50.098;8.726;2022-07-17T01:35:31;2.63;;;1.17;;
22176;SDS011;11254;50.098;8.726;2022-07-17T01:38:00;4.03;;;1.20;;
22176;SDS011;11254;50.098;8.726;2022-07-17T01:40:29;4.35;;;1.35;;
22176;SDS011;11254;50.098;8.726;2022-07-17T01:42:57;3.05;;;0.95;;
22176;SDS011;11254;50.098;8.726;2022-07-17T01:45:25;2.97;;;1.00;;
22176;SDS011;11254;50.098;8.726;2022-07-17T01:47:54;3.45;;;1.42;;
22176;SDS011;11254;50.098;8.726;2022-07-17T01:50:22;4.65;;;1.30;;
22176;SDS011;11254;50.098;8.726;2022-07-17T01:52:50;2.53;;;0.90;;
22176;SDS011;11254;50.098;8.726;2022-07-17T01:55:18;5.40;;;1.35;;
22176;SDS011;11254;50.098;8.726;2022-07-17T01:57:47;5.60;;;1.30;;
22176;SDS011;11254;50.098;8.726;2022-07-17T02:00:16;5.63;;;1.30;;
22176;SDS011;11254;50.098;8.726;2022-07-17T02:02:46;3.42;;;1.25;;
22176;SDS011;11254;50.098;8.726;2022-07-17T02:05:14;4.60;;;1.38;;
22176;SDS011;11254;50.098;8.726;2022-07-17T02:07:42;3.38;;;1.13;;
22176;SDS011;11254;50.098;8.726;2022-07-17T02:10:11;6.10;;;1.20;;
22176;SDS011;11254;50.098;8.726;2022-07-17T02:12:41;5.80;;;1.20;;
22176;SDS011;11254;50.098;8.726;2022-07-17T02:15:12;5.10;;;1.13;;
22176;SDS011;11254;50.098;8.726;2022-07-17T02:17:41;5.15;;;1.40;;
22176;SDS011;11254;50.098;8.726;2022-07-17T02:20:10;3.45;;;1.38;;
22176;SDS011;11254;50.098;8.726;2022-07-17T02:22:39;2.63;;;1.00;;
22176;SDS011;11254;50.098;8.726;2022-07-17T02:25:08;4.60;;;1.25;;
22176;SDS011;11254;50.098;8.726;2022-07-17T02:27:37;3.17;;;1.25;;
22176;SDS011;11254;50.098;8.726;2022-07-17T02:30:08;6.55;;;1.13;;
22176;SDS011;11254;50.098;8.726;2022-07-17T02:32:39;3.88;;;1.15;;
22176;SDS011;11254;50.098;8.726;2022-07-17T02:35:08;4.10;;;1.30;;
22176;SDS011;11254;50.098;8.726;2022-07-17T02:37:38;2.55;;;1.05;;
22176;SDS011;11254;50.098;8.726;2022-07-17T02:40:08;6.38;;;1.40;;
22176;SDS011;11254;50.098;8.726;2022-07-17T02:42:38;3.58;;;1.50;;
22176;SDS011;11254;50.098;8.726;2022-07-17T02:45:07;4.32;;;1.27;;
22176;SDS011;11254;50.098;8.726;2022-07-17T02:47:36;5.03;;;1.40;;
22176;SDS011;11254;50.098;8.726;2022-07-17T02:50:06;4.38;;;1.40;;
22176;SDS011;11254;50.098;8.726;2022-07-17T02:52:36;3.63;;;1.02;;
22176;SDS011;11254;50.098;8.726;2022-07-17T02:55:04;3.58;;;1.35;;
22176;SDS011;11254;50.098;8.726;2022-07-17T02:57:34;4.07;;;1.80;;
22176;SDS011;11254;50.098;8.726;2022-07-17T03:00:03;7.30;;;1.20;;
22176;SDS011;11254;50.098;8.726;2022-07-17T03:02:33;3.38;;;1.40;;
22176;SDS011;11254;50.098;8.726;2022-07-17T03:05:01;4.75;;;1.33;;
22176;SDS011;11254;50.098;8.726;2022-07-17T03:07:30;5.55;;;1.95;;
22176;SDS011;11254;50.098;8.726;2022-07-17T03:09:58;3.85;;;1.75;;
22176;SDS011;11254;50.098;8.726;2022-07-17T03:12:27;7.00;;;1.70;;
22176;SDS011;11254;50.098;8.726;2022-07-17T03:14:55;7.07;;;1.60;;
22176;SDS011;11254;50.098;8.726;2022-07-17T03:17:23;2.83;;;1.13;;
22176;SDS011;11254;50.098;8.726;2022-07-17T03:19:51;7.50;;;1.23;;
22176;SDS011;11254;50.098;8.726;2022-07-17T03:22:19;3.95;;;1.30;;
22176;SDS011;11254;50.098;8.726;2022-07-17T03:24:49;5.95;;;1.20;;
22176;SDS011;11254;50.098;8.726;2022-07-17T03:27:17;4.47;;;1.00;;
22176;SDS011;11254;50.098;8.726;2022-07-17T03:29:45;2.47;;;1.00;;
22176;SDS011;11254;50.098;8.726;2022-07-17T03:32:14;4.25;;;1.13;;
22176;SDS011;11254;50.098;8.726;2022-07-17T03:34:43;5.40;;;1.10;;
22176;SDS011;11254;50.098;8.726;2022-07-17T03:37:11;3.67;;;1.00;;
22176;SDS011;11254;50.098;8.726;2022-07-17T03:39:39;3.75;;;1.40;;
22176;SDS011;11254;50.098;8.726;2022-07-17T03:42:08;6.00;;;1.40;;
22176;SDS011;11254;50.098;8.726;2022-07-17T03:44:37;5.03;;;1.45;;
22176;SDS011;11254;50.098;8.726;2022-07-17T03:47:05;4.45;;;1.30;;
22176;SDS011;11254;50.098;8.726;2022-07-17T03:49:33;4.38;;;1.27;;
22176;SDS011;11254;50.098;8.726;2022-07-17T03:52:01;3.70;;;1.00;;
22176;SDS011;11254;50.098;8.726;2022-07-17T03:54:29;2.53;;;1.10;;
22176;SDS011;11254;50.098;8.726;2022-07-17T03:56:58;3.78;;;1.13;;
22176;SDS011;11254;50.098;8.726;2022-07-17T03:59:27;3.42;;;1.02;;
22176;SDS011;11254;50.098;8.726;2022-07-17T04:01:55;5.97;;;1.33;;
22176;SDS011;11254;50.098;8.726;2022-07-17T04:04:23;4.65;;;1.08;;
22176;SDS011;11254;50.098;8.726;2022-07-17T04:06:51;4.15;;;1.38;;
22176;SDS011;11254;50.098;8.726;2022-07-17T04:09:19;3.05;;;0.80;;
22176;SDS011;11254;50.098;8.726;2022-07-17T04:11:48;5.88;;;1.42;;
22176;SDS011;11254;50.098;8.726;2022-07-17T04:14:16;3.08;;;1.20;;
22176;SDS011;11254;50.098;8.726;2022-07-17T04:16:46;4.05;;;1.15;;
22176;SDS011;11254;50.098;8.726;2022-07-17T04:19:14;3.08;;;1.00;;
22176;SDS011;11254;50.098;8.726;2022-07-17T04:21:42;4.20;;;1.08;;
22176;SDS011;11254;50.098;8.726;2022-07-17T04:24:10;3.53;;;1.30;;
22176;SDS011;11254;50.098;8.726;2022-07-17T04:26:39;3.60;;;1.15;;
22176;SDS011;11254;50.098;8.726;2022-07-17T04:29:07;3.97;;;1.10;;
22176;SDS011;11254;50.098;8.726;2022-07-17T04:31:35;3.65;;;1.30;;
22176;SDS011;11254;50.098;8.726;2022-07-17T04:34:04;4.25;;;1.35;;
22176;SDS011;11254;50.098;8.726;2022-07-17T04:36:32;4.50;;;1.17;;
22176;SDS011;11254;50.098;8.726;2022-07-17T04:39:01;4.00;;;1.10;;
22176;SDS011;11254;50.098;8.726;2022-07-17T04:41:29;3.65;;;1.15;;
22176;SDS011;11254;50.098;8.726;2022-07-17T04:43:57;3.45;;;1.10;;
22176;SDS011;11254;50.098;8.726;2022-07-17T04:46:25;3.28;;;1.15;;
22176;SDS011;11254;50.098;8.726;2022-07-17T04:48:53;4.53;;;1.40;;
22176;SDS011;11254;50.098;8.726;2022-07-17T04:51:23;3.05;;;1.10;;
22176;SDS011;11254;50.098;8.726;2022-07-17T04:53:51;3.20;;;1.10;;
22176;SDS011;11254;50.098;8.726;2022-07-17T04:56:19;4.68;;;1.30;;
22176;SDS011;11254;50.098;8.726;2022-07-17T04:58:47;3.72;;;1.17;;
22176;SDS011;11254;50.098;8.726;2022-07-17T05:01:15;5.50;;;1.35;;
22176;SDS011;11254;50.098;8.726;2022-07-17T05:03:44;4.90;;;1.15;;
22176;SDS011;11254;50.098;8.726;2022-07-17T05:06:12;3.22;;;1.20;;
22176;SDS011;11254;50.098;8.726;2022-07-17T05:08:41;5.75;;;1.23;;
22176;SDS011;11254;50.098;8.726;2022-07-17T05:11:09;4.15;;;1.15;;
22176;SDS011;11254;50.098;8.726;2022-07-17T05:13:37;4.10;;;1.17;;
22176;SDS011;11254;50.098;8.726;2022-07-17T05:16:05;4.97;;;1.20;;
22176;SDS011;11254;50.098;8.726;2022-07-17T05:18:34;3.30;;;1.13;;
22176;SDS011;11254;50.098;8.726;2022-07-17T05:21:02;4.70;;;1.40;;
22176;SDS011;11254;50.098;8.726;2022-07-17T05:23:30;3.67;;;1.00;;
22176;SDS011;11254;50.098;8.726;2022-07-17T05:25:59;4.25;;;1.10;;
22176;SDS011;11254;50.098;8.726;2022-07-17T05:28:27;5.72;;;1.00;;
22176;SDS011;11254;50.098;8.726;2022-07-17T05:31:03;2.30;;;1.02;;
22176;SDS011;11254;50.098;8.726;2022-07-17T05:33:31;3.10;;;0.93;;
22176;SDS011;11254;50.098;8.726;2022-07-17T05:36:00;3.50;;;1.30;;
22176;SDS011;11254;50.098;8.726;2022-07-17T05:38:28;4.30;;;1.10;;
22176;SDS011;11254;50.098;8.726;2022-07-17T05:40:56;3.10;;;1.25;;
22176;SDS011;11254;50.098;8.726;2022-07-17T05:43:26;5.80;;;1.40;;
22176;SDS011;11254;50.098;8.726;2022-07-17T05:45:54;3.10;;;1.17;;
22176;SDS011;11254;50.098;8.726;2022-07-17T05:48:22;3.70;;;1.05;;
22176;SDS011;11254;50.098;8.726;2022-07-17T05:50:51;8.30;;;1.30;;
22176;SDS011;11254;50.098;8.726;2022-07-17T05:53:19;5.50;;;1.23;;
22176;SDS011;11254;50.098;8.726;2022-07-17T05:55:47;3.88;;;1.20;;
22176;SDS011;11254;50.098;8.726;2022-07-17T05:58:16;3.55;;;1.00;;
22176;SDS011;11254;50.098;8.726;2022-07-17T06:00:46;3.42;;;1.10;;
22176;SDS011;11254;50.098;8.726;2022-07-17T06:03:15;4.68;;;1.05;;
22176;SDS011;11254;50.098;8.726;2022-07-17T06:05:43;5.38;;;1.27;;
22176;SDS011;11254;50.098;8.726;2022-07-17T06:08:11;3.10;;;1.17;;
22176;SDS011;11254;50.098;8.726;2022-07-17T06:10:39;5.20;;;1.20;;
22176;SDS011;11254;50.098;8.726;2022-07-17T06:13:07;3.85;;;1.35;;
22176;SDS011;11254;50.098;8.726;2022-07-17T06:15:36;4.35;;;1.42;;
22176;SDS011;11254;50.098;8.726;2022-07-17T06:18:06;3.70;;;0.82;;
22176;SDS011;11254;50.098;8.726;2022-07-17T06:20:34;4.30;;;1.20;;
22176;SDS011;11254;50.098;8.726;2022-07-17T06:23:02;3.75;;;0.90;;
22176;SDS011;11254;50.098;8.726;2022-07-17T06:25:30;3.42;;;0.90;;
22176;SDS011;11254;50.098;8.726;2022-07-17T06:27:58;2.40;;;1.00;;
22176;SDS011;11254;50.098;8.726;2022-07-17T06:30:26;4.50;;;1.20;;
22176;SDS011;11254;50.098;8.726;2022-07-17T06:32:55;3.00;;;1.20;;
22176;SDS011;11254;50.098;8.726;2022-07-17T06:35:24;3.00;;;1.02;;
22176;SDS011;11254;50.098;8.726;2022-07-17T06:37:53;3.85;;;1.27;;
22176;SDS011;11254;50.098;8.726;2022-07-17T06:40:21;4.45;;;1.20;;
22176;SDS011;11254;50.098;8.726;2022-07-17T06:42:49;3.35;;;1.30;;
22176;SDS011;11254;50.098;8.726;2022-07-17T06:45:17;4.60;;;1.20;;
22176;SDS011;11254;50.098;8.726;2022-07-17T06:47:46;4.38;;;1.30;;
22176;SDS011;11254;50.098;8.726;2022-07-17T06:50:14;3.20;;;1.15;;
22176;SDS011;11254;50.098;8.726;2022-07-17T06:52:43;2.80;;;1.20;;
22176;SDS011;11254;50.098;8.726;2022-07-17T06:55:12;5.18;;;1.20;;
22176;SDS011;11254;50.098;8.726;2022-07-17T06:57:41;5.85;;;1.30;;
22176;SDS011;11254;50.098;8.726;2022-07-17T07:00:09;2.90;;;1.20;;
22176;SDS011;11254;50.098;8.726;2022-07-17T07:02:38;4.22;;;1.10;;
22176;SDS011;11254;50.098;8.726;2022-07-17T07:05:07;4.13;;;1.20;;
22176;SDS011;11254;50.098;8.726;2022-07-17T07:07:35;3.30;;;1.00;;
22176;SDS011;11254;50.098;8.726;2022-07-17T07:10:06;2.70;;;1.00;;
22176;SDS011;11254;50.098;8.726;2022-07-17T07:12:34;3.53;;;1.00;;
22176;SDS011;11254;50.098;8.726;2022-07-17T07:15:03;4.78;;;1.27;;
22176;SDS011;11254;50.098;8.726;2022-07-17T07:17:38;5.10;;;1.30;;
22176;SDS011;11254;50.098;8.726;2022-07-17T07:20:07;2.78;;;0.93;;
22176;SDS011;11254;50.098;8.726;2022-07-17T07:22:36;3.72;;;0.93;;
22176;SDS011;11254;50.098;8.726;2022-07-17T07:25:06;7.40;;;1.35;;
22176;SDS011;11254;50.098;8.726;2022-07-17T07:27:34;2.75;;;1.17;;
22176;SDS011;11254;50.098;8.726;2022-07-17T07:30:03;3.55;;;0.90;;
22176;SDS011;11254;50.098;8.726;2022-07-17T07:32:31;2.90;;;0.98;;
22176;SDS011;11254;50.098;8.726;2022-07-17T07:34:59;5.25;;;1.10;;
22176;SDS011;11254;50.098;8.726;2022-07-17T07:37:27;3.75;;;1.00;;
22176;SDS011;11254;50.098;8.726;2022-07-17T07:39:55;6.60;;;1.27;;
22176;SDS011;11254;50.098;8.726;2022-07-17T07:42:25;3.97;;;1.05;;
22176;SDS011;11254;50.098;8.726;2022-07-17T07:44:53;5.72;;;1.33;;
22176;SDS011;11254;50.098;8.726;2022-07-17T07:47:21;3.15;;;0.90;;
22176;SDS011;11254;50.098;8.726;2022-07-17T07:49:49;2.60;;;0.98;;
22176;SDS011;11254;50.098;8.726;2022-07-17T07:52:18;3.65;;;1.02;;
22176;SDS011;11254;50.098;8.726;2022-07-17T07:54:46;3.83;;;0.80;;
22176;SDS011;11254;50.098;8.726;2022-07-17T07:57:16;5.47;;;1.13;;
22176;SDS011;11254;50.098;8.726;2022-07-17T07:59:45;3.55;;;0.82;;
22176;SDS011;11254;50.098;8.726;2022-07-17T08:02:14;3.55;;;0.80;;
22176;SDS011;11254;50.098;8.726;2022-07-17T08:04:42;2.05;;;0.63;;
22176;SDS011;11254;50.098;8.726;2022-07-17T08:07:10;1.75;;;0.60;;
22176;SDS011;11254;50.098;8.726;2022-07-17T08:09:38;3.60;;;0.70;;
22176;SDS011;11254;50.098;8.726;2022-07-17T08:12:07;3.58;;;1.05;;
22176;SDS011;11254;50.098;8.726;2022-07-17T08:14:56;4.13;;;0.77;;
22176;SDS011;11254;50.098;8.726;2022-07-17T08:17:24;2.92;;;1.10;;
22176;SDS011;11254;50.098;8.726;2022-07-17T08:19:52;6.75;;;1.00;;
22176;SDS011;11254;50.098;8.726;2022-07-17T08:22:20;2.80;;;0.90;;
22176;SDS011;11254;50.098;8.726;2022-07-17T08:25:08;2.90;;;0.82;;
22176;SDS011;11254;50.098;8.726;2022-07-17T08:27:37;3.08;;;0.95;;
22176;SDS011;11254;50.098;8.726;2022-07-17T08:30:08;2.15;;;0.80;;
22176;SDS011;11254;50.098;8.726;2022-07-17T08:32:38;3.40;;;0.70;;
22176;SDS011;11254;50.098;8.726;2022-07-17T08:35:06;2.92;;;0.77;;
22176;SDS011;11254;50.098;8.726;2022-07-17T08:37:42;3.00;;;0.80;;
22176;SDS011;11254;50.098;8.726;2022-07-17T08:40:15;2.72;;;1.05;;
22176;SDS011;11254;50.098;8.726;2022-07-17T08:42:44;1.88;;;0.80;;
22176;SDS011;11254;50.098;8.726;2022-07-17T08:45:14;4.15;;;0.85;;
22176;SDS011;11254;50.098;8.726;2022-07-17T08:47:42;3.10;;;0.70;;
22176;SDS011;11254;50.098;8.726;2022-07-17T08:50:11;3.83;;;0.90;;
22176;SDS011;11254;50.098;8.726;2022-07-17T08:52:40;3.67;;;0.80;;
22176;SDS011;11254;50.098;8.726;2022-07-17T08:55:09;2.08;;;0.75;;
22176;SDS011;11254;50.098;8.726;2022-07-17T08:57:40;3.60;;;1.08;;
22176;SDS011;11254;50.098;8.726;2022-07-17T09:00:15;3.15;;;0.95;;
22176;SDS011;11254;50.098;8.726;2022-07-17T09:02:52;2.85;;;0.60;;
22176;SDS011;11254;50.098;8.726;2022-07-17T09:05:22;2.30;;;0.88;;
22176;SDS011;11254;50.098;8.726;2022-07-17T09:07:52;1.73;;;0.60;;
22176;SDS011;11254;50.098;8.726;2022-07-17T09:10:29;1.67;;;0.60;;
22176;SDS011;11254;50.098;8.726;2022-07-17T09:12:58;4.03;;;1.00;;
22176;SDS011;11254;50.098;8.726;2022-07-17T09:15:28;2.53;;;0.77;;
22176;SDS011;11254;50.098;8.726;2022-07-17T09:18:01;3.28;;;0.80;;
22176;SDS011;11254;50.098;8.726;2022-07-17T09:20:29;3.15;;;0.82;;
22176;SDS011;11254;50.098;8.726;2022-07-17T09:22:58;2.45;;;0.68;;
22176;SDS011;11254;50.098;8.726;2022-07-17T09:25:31;4.57;;;0.80;;
22176;SDS011;11254;50.098;8.726;2022-07-17T09:28:00;3.58;;;0.85;;
22176;SDS011;11254;50.098;8.726;2022-07-17T09:30:31;1.85;;;0.75;;
22176;SDS011;11254;50.098;8.726;2022-07-17T09:33:00;2.50;;;0.75;;
22176;SDS011;11254;50.098;8.726;2022-07-17T09:35:29;4.10;;;0.60;;
22176;SDS011;11254;50.098;8.726;2022-07-17T09:37:58;3.05;;;0.73;;
22176;SDS011;11254;50.098;8.726;2022-07-17T09:40:28;3.10;;;0.75;;
22176;SDS011;11254;50.098;8.726;2022-07-17T09:43:13;3.95;;;0.80;;
22176;SDS011;11254;50.098;8.726;2022-07-17T09:45:42;3.08;;;0.80;;
22176;SDS011;11254;50.098;8.726;2022-07-17T09:48:10;4.80;;;0.93;;
22176;SDS011;11254;50.098;8.726;2022-07-17T09:50:39;4.00;;;0.88;;
22176;SDS011;11254;50.098;8.726;2022-07-17T09:53:08;6.68;;;1.38;;
22176;SDS011;11254;50.098;8.726;2022-07-17T09:55:37;3.95;;;0.90;;
22176;SDS011;11254;50.098;8.726;2022-07-17T09:58:13;2.88;;;0.80;;
22176;SDS011;11254;50.098;8.726;2022-07-17T10:00:43;3.03;;;0.77;;
22176;SDS011;11254;50.098;8.726;2022-07-17T10:03:11;3.58;;;0.90;;
22176;SDS011;11254;50.098;8.726;2022-07-17T10:05:40;2.25;;;0.70;;
22176;SDS011;11254;50.098;8.726;2022-07-17T10:08:11;3.92;;;1.17;;
22176;SDS011;11254;50.098;8.726;2022-07-17T10:10:40;3.83;;;0.70;;
22176;SDS011;11254;50.098;8.726;2022-07-17T10:13:08;6.90;;;1.50;;
22176;SDS011;11254;50.098;8.726;2022-07-17T10:15:36;4.22;;;0.80;;
22176;SDS011;11254;50.098;8.726;2022-07-17T10:18:06;2.88;;;0.70;;
22176;SDS011;11254;50.098;8.726;2022-07-17T10:20:35;3.08;;;0.70;;
22176;SDS011;11254;50.098;8.726;2022-07-17T10:23:11;3.20;;;1.10;;
22176;SDS011;11254;50.098;8.726;2022-07-17T10:25:39;2.95;;;1.15;;
22176;SDS011;11254;50.098;8.726;2022-07-17T10:28:09;2.30;;;0.68;;
22176;SDS011;11254;50.098;8.726;2022-07-17T10:30:41;1.88;;;0.70;;
22176;SDS011;11254;50.098;8.726;2022-07-17T10:33:15;2.78;;;0.77;;
22176;SDS011;11254;50.098;8.726;2022-07-17T10:35:45;3.20;;;0.88;;
22176;SDS011;11254;50.098;8.726;2022-07-17T10:38:14;3.25;;;1.00;;
22176;SDS011;11254;50.098;8.726;2022-07-17T10:40:43;2.50;;;0.85;;
22176;SDS011;11254;50.098;8.726;2022-07-17T10:43:11;2.42;;;0.70;;
22176;SDS011;11254;50.098;8.726;2022-07-17T10:45:40;3.47;;;1.00;;
22176;SDS011;11254;50.098;8.726;2022-07-17T10:48:10;4.05;;;0.80;;
22176;SDS011;11254;50.098;8.726;2022-07-17T10:50:42;2.78;;;0.90;;
22176;SDS011;11254;50.098;8.726;2022-07-17T10:53:14;2.65;;;0.93;;
22176;SDS011;11254;50.098;8.726;2022-07-17T10:55:51;2.42;;;0.85;;
22176;SDS011;11254;50.098;8.726;2022-07-17T10:58:26;2.67;;;0.75;;
22176;SDS011;11254;50.098;8.726;2022-07-17T11:00:59;4.18;;;0.95;;
22176;SDS011;11254;50.098;8.726;2022-07-17T11:03:28;2.70;;;0.90;;
22176;SDS011;11254;50.098;8.726;2022-07-17T11:06:07;2.55;;;0.73;;
22176;SDS011;11254;50.098;8.726;2022-07-17T11:08:39;4.13;;;1.15;;
22176;SDS011;11254;50.098;8.726;2022-07-17T11:11:09;2.75;;;0.90;;
22176;SDS011;11254;50.098;8.726;2022-07-17T11:13:45;2.88;;;0.68;;
22176;SDS011;11254;50.098;8.726;2022-07-17T11:16:22;3.88;;;1.00;;
22176;SDS011;11254;50.098;8.726;2022-07-17T11:18:52;2.08;;;0.80;;
22176;SDS011;11254;50.098;8.726;2022-07-17T11:21:23;2.75;;;0.80;;
22176;SDS011;11254;50.098;8.726;2022-07-17T11:23:52;4.00;;;1.00;;
22176;SDS011;11254;50.098;8.726;2022-07-17T11:26:21;2.78;;;0.90;;
22176;SDS011;11254;50.098;8.726;2022-07-17T11:28:51;4.00;;;0.95;;
22176;SDS011;11254;50.098;8.726;2022-07-17T11:31:27;3.58;;;0.95;;
22176;SDS011;11254;50.098;8.726;2022-07-17T11:33:56;2.65;;;0.80;;
22176;SDS011;11254;50.098;8.726;2022-07-17T11:36:28;2.30;;;0.70;;
22176;SDS011;11254;50.098;8.726;2022-07-17T11:38:58;3.35;;;0.90;;
22176;SDS011;11254;50.098;8.726;2022-07-17T11:41:32;3.05;;;1.00;;
22176;SDS011;11254;50.098;8.726;2022-07-17T11:44:01;4.15;;;1.00;;
22176;SDS011;11254;50.098;8.726;2022-07-17T11:46:30;2.40;;;0.82;;
22176;SDS011;11254;50.098;8.726;2022-07-17T11:49:00;2.70;;;0.90;;
22176;SDS011;11254;50.098;8.726;2022-07-17T11:51:40;3.00;;;0.85;;
22176;SDS011;11254;50.098;8.726;2022-07-17T11:54:10;3.17;;;0.90;;
22176;SDS011;11254;50.098;8.726;2022-07-17T11:56:40;3.10;;;0.80;;
22176;SDS011;11254;50.098;8.726;2022-07-17T11:59:09;2.95;;;0.90;;
22176;SDS011;11254;50.098;8.726;2022-07-17T12:01:39;3.17;;;0.65;;
22176;SDS011;11254;50.098;8.726;2022-07-17T12:04:09;3.13;;;0.77;;
22176;SDS011;11254;50.098;8.726;2022-07-17T12:06:44;3.22;;;1.20;;
22176;SDS011;11254;50.098;8.726;2022-07-17T12:09:13;2.55;;;0.73;;
22176;SDS011;11254;50.098;8.726;2022-07-17T12:11:48;3.85;;;0.90;;
22176;SDS011;11254;50.098;8.726;2022-07-17T12:14:17;3.38;;;0.85;;
22176;SDS011;11254;50.098;8.726;2022-07-17T12:16:45;2.00;;;0.63;;
22176;SDS011;11254;50.098;8.726;2022-07-17T12:19:16;1.80;;;0.70;;
22176;SDS011;11254;50.098;8.726;2022-07-17T12:21:48;1.95;;;0.70;;
22176;SDS011;11254;50.098;8.726;2022-07-17T12:24:24;2.47;;;0.70;;
22176;SDS011;11254;50.098;8.726;2022-07-17T12:26:54;2.65;;;0.68;;
22176;SDS011;11254;50.098;8.726;2022-07-17T12:29:23;2.45;;;0.63;;
22176;SDS011;11254;50.098;8.726;2022-07-17T12:32:03;2.75;;;0.73;;
22176;SDS011;11254;50.098;8.726;2022-07-17T12:34:33;3.15;;;1.00;;
22176;SDS011;11254;50.098;8.726;2022-07-17T12:37:03;2.38;;;0.70;;
22176;SDS011;11254;50.098;8.726;2022-07-17T12:39:32;1.45;;;0.47;;
22176;SDS011;11254;50.098;8.726;2022-07-17T12:42:00;2.67;;;0.75;;
22176;SDS011;11254;50.098;8.726;2022-07-17T12:44:29;2.88;;;0.70;;
22176;SDS011;11254;50.098;8.726;2022-07-17T12:46:58;1.55;;;0.50;;
22176;SDS011;11254;50.098;8.726;2022-07-17T12:49:26;4.60;;;0.70;;
22176;SDS011;11254;50.098;8.726;2022-07-17T12:51:55;1.92;;;0.70;;
22176;SDS011;11254;50.098;8.726;2022-07-17T12:54:24;3.53;;;0.73;;
22176;SDS011;11254;50.098;8.726;2022-07-17T12:56:52;3.40;;;0.90;;
22176;SDS011;11254;50.098;8.726;2022-07-17T12:59:20;1.83;;;0.70;;
22176;SDS011;11254;50.098;8.726;2022-07-17T13:01:49;3.20;;;0.68;;
22176;SDS011;11254;50.098;8.726;2022-07-17T13:04:17;2.95;;;0.80;;
22176;SDS011;11254;50.098;8.726;2022-07-17T13:06:47;5.38;;;0.77;;
22176;SDS011;11254;50.098;8.726;2022-07-17T13:09:15;1.77;;;0.60;;
22176;SDS011;11254;50.098;8.726;2022-07-17T13:11:47;2.33;;;0.70;;
22176;SDS011;11254;50.098;8.726;2022-07-17T13:14:18;2.10;;;0.73;;
22176;SDS011;11254;50.098;8.726;2022-07-17T13:16:46;1.83;;;0.60;;
22176;SDS011;11254;50.098;8.726;2022-07-17T13:19:14;5.28;;;0.70;;
22176;SDS011;11254;50.098;8.726;2022-07-17T13:21:43;3.58;;;0.60;;
22176;SDS011;11254;50.098;8.726;2022-07-17T13:24:11;3.90;;;0.63;;
22176;SDS011;11254;50.098;8.726;2022-07-17T13:26:39;3.72;;;0.70;;
22176;SDS011;11254;50.098;8.726;2022-07-17T13:29:08;2.15;;;0.75;;
22176;SDS011;11254;50.098;8.726;2022-07-17T13:31:37;1.58;;;0.65;;
22176;SDS011;11254;50.098;8.726;2022-07-17T13:34:06;1.77;;;0.63;;
22176;SDS011;11254;50.098;8.726;2022-07-17T13:36:35;2.22;;;0.70;;
22176;SDS011;11254;50.098;8.726;2022-07-17T13:39:15;2.55;;;0.98;;
22176;SDS011;11254;50.098;8.726;2022-07-17T13:41:43;1.70;;;0.60;;
22176;SDS011;11254;50.098;8.726;2022-07-17T13:44:13;2.85;;;0.68;;
22176;SDS011;11254;50.098;8.726;2022-07-17T13:46:41;3.22;;;0.73;;
22176;SDS011;11254;50.098;8.726;2022-07-17T13:49:09;2.92;;;0.70;;
22176;SDS011;11254;50.098;8.726;2022-07-17T13:51:37;2.67;;;0.77;;
22176;SDS011;11254;50.098;8.726;2022-07-17T13:54:06;5.13;;;1.00;;
22176;SDS011;11254;50.098;8.726;2022-07-17T13:56:34;3.20;;;0.90;;
22176;SDS011;11254;50.098;8.726;2022-07-17T13:59:03;4.22;;;0.70;;
22176;SDS011;11254;50.098;8.726;2022-07-17T14:01:33;2.60;;;0.90;;
22176;SDS011;11254;50.098;8.726;2022-07-17T14:04:03;2.13;;;0.73;;
22176;SDS011;11254;50.098;8.726;2022-07-17T14:06:31;2.10;;;0.80;;
22176;SDS011;11254;50.098;8.726;2022-07-17T14:08:59;1.77;;;0.60;;
22176;SDS011;11254;50.098;8.726;2022-07-17T14:11:27;2.38;;;0.70;;
22176;SDS011;11254;50.098;8.726;2022-07-17T14:13:55;2.17;;;0.70;;
22176;SDS011;11254;50.098;8.726;2022-07-17T14:16:24;1.98;;;0.68;;
22176;SDS011;11254;50.098;8.726;2022-07-17T14:18:54;2.08;;;0.77;;
22176;SDS011;11254;50.098;8.726;2022-07-17T14:21:26;3.42;;;0.80;;
22176;SDS011;11254;50.098;8.726;2022-07-17T14:23:55;3.15;;;0.80;;
22176;SDS011;11254;50.098;8.726;2022-07-17T14:26:23;3.88;;;0.90;;
22176;SDS011;11254;50.098;8.726;2022-07-17T14:28:52;2.15;;;0.70;;
22176;SDS011;11254;50.098;8.726;2022-07-17T14:31:20;2.45;;;0.70;;
22176;SDS011;11254;50.098;8.726;2022-07-17T14:33:49;3.85;;;1.10;;
22176;SDS011;11254;50.098;8.726;2022-07-17T14:36:19;3.60;;;0.85;;
22176;SDS011;11254;50.098;8.726;2022-07-17T14:38:47;2.78;;;0.80;;
22176;SDS011;11254;50.098;8.726;2022-07-17T14:41:15;2.72;;;0.80;;
22176;SDS011;11254;50.098;8.726;2022-07-17T14:43:43;2.72;;;0.77;;
22176;SDS011;11254;50.098;8.726;2022-07-17T14:46:12;1.90;;;0.70;;
22176;SDS011;11254;50.098;8.726;2022-07-17T14:48:40;2.47;;;0.73;;
22176;SDS011;11254;50.098;8.726;2022-07-17T14:51:08;2.92;;;0.80;;
22176;SDS011;11254;50.098;8.726;2022-07-17T14:53:37;2.35;;;0.90;;
22176;SDS011;11254;50.098;8.726;2022-07-17T14:56:06;2.78;;;0.82;;
22176;SDS011;11254;50.098;8.726;2022-07-17T14:58:34;4.38;;;0.95;;
22176;SDS011;11254;50.098;8.726;2022-07-17T15:01:02;1.73;;;0.70;;